| time (UTC) | temp F | wind direction | speed knots | gust knots | rain 1hr in | rain 24hr in | rain mn in | humidity % | barometer mb |
| 20260505153047 | 31 | 349 | 3.5 | 7.8 | 0.00 | 0.07 | 0.03 | 94 | 1007.2 |
| 20260505151545 | 31 | 16 | 2.6 | 8.7 | 0.00 | 0.07 | 0.03 | 94 | 1007.2 |
| 20260505124522 | 35 | 354 | 2.6 | 6.1 | 0.01 | 0.07 | 0.03 | 94 | 1005.2 |
| 20260505123015 | 36 | 322 | 1.7 | 7.0 | 0.01 | 0.07 | 0.03 | 94 | 1004.8 |
| 20260505121528 | 37 | 4 | 3.5 | 7.8 | 0.01 | 0.07 | 0.03 | 94 | 1004.5 |
| 20260505120008 | 38 | 71 | 2.6 | 6.1 | 0.00 | 0.06 | 0.02 | 93 | 1004.7 |
| 20260505114505 | 39 | 350 | 0.0 | 2.6 | 0.00 | 0.06 | 0.02 | 90 | 1004.4 |
| 20260505113003 | 39 | 288 | 0.0 | 3.5 | 0.00 | 0.06 | 0.02 | 89 | 1004.2 |
| 20260505111503 | 40 | 276 | 2.6 | 6.1 | 0.00 | 0.06 | 0.02 | 89 | 1004.0 |
| 20260505101600 | 40 | 176 | 4.3 | 8.7 | 0.00 | 0.06 | 0.02 | 92 | 1003.3 |
| 20260505100055 | 40 | 210 | 4.3 | 9.6 | 0.00 | 0.06 | 0.02 | 91 | 1003.1 |
| 20260505094606 | 40 | 213 | 2.6 | 5.2 | 0.00 | 0.06 | 0.02 | 92 | 1003.1 |
| 20260505093055 | 40 | 195 | 1.7 | 5.2 | 0.00 | 0.06 | 0.02 | 92 | 1003.2 |
| 20260505091547 | 40 | 200 | 3.5 | 6.1 | 0.00 | 0.06 | 0.02 | 91 | 1003.4 |
| 20260505090047 | 40 | 203 | 1.7 | 4.3 | 0.00 | 0.06 | 0.02 | 94 | 1003.3 |
| 20260505084551 | 40 | 207 | 1.7 | 3.5 | 0.00 | 0.06 | 0.02 | 94 | 1003.7 |
| 20260505083048 | 40 | 191 | 0.0 | 1.7 | 0.00 | 0.06 | 0.02 | 93 | 1004.0 |
| 20260505081535 | 40 | 91 | 0.0 | 3.5 | 0.00 | 0.06 | 0.02 | 93 | 1004.3 |
| 20260505080044 | 41 | 311 | 0.0 | 0.9 | 0.00 | 0.06 | 0.02 | 93 | 1004.5 |
| 20260505074531 | 41 | 270 | 0.0 | 0.9 | 0.00 | 0.06 | 0.02 | 93 | 1004.6 |
| 20260505073035 | 41 | 342 | 0.9 | 2.6 | 0.00 | 0.06 | 0.02 | 93 | 1004.7 |
| 20260505071542 | 41 | 335 | 0.0 | 0.9 | 0.01 | 0.06 | 0.02 | 93 | 1004.7 |
| 20260505070027 | 41 | 69 | 1.7 | 3.5 | 0.02 | 0.06 | 0.02 | 92 | 1004.7 |
| 20260505064533 | 41 | 359 | 0.0 | 0.9 | 0.02 | 0.06 | 0.02 | 93 | 1004.9 |
| 20260505063024 | 41 | 350 | 0.0 | 0.9 | 0.02 | 0.06 | 0.02 | 92 | 1004.9 |
| 20260505061509 | 41 | 354 | 1.7 | 4.3 | 0.01 | 0.05 | 0.01 | 91 | 1004.7 |
| 20260505060008 | 41 | 55 | 0.0 | 1.7 | 0.00 | 0.04 | 0.00 | 91 | 1004.9 |
| 20260505054503 | 41 | 47 | 2.6 | 4.3 | 0.00 | 0.04 | 0.04 | 90 | 1004.9 |
| 20260505053002 | 41 | 358 | 2.6 | 4.3 | 0.00 | 0.04 | 0.04 | 89 | 1004.8 |
| 20260505051501 | 41 | 19 | 0.9 | 3.5 | 0.00 | 0.04 | 0.04 | 89 | 1004.7 |
| 20260505041557 | 41 | 302 | 0.0 | 0.0 | 0.00 | 0.00 | 0.04 | 89 | 1004.2 |
| 20260505034554 | 42 | 351 | 1.7 | 8.7 | 0.04 | 0.04 | 0.04 | 85 | 1003.7 |
| 20260505033056 | 42 | 309 | 0.9 | 3.5 | 0.04 | 0.04 | 0.04 | 87 | 1004.2 |
| 20260505031558 | 42 | 347 | 1.7 | 7.0 | 0.04 | 0.04 | 0.04 | 85 | 1003.8 |
| 20260505030052 | 43 | 25 | 3.5 | 7.0 | 0.01 | 0.01 | 0.01 | 84 | 1003.6 |
| 20260505024551 | 44 | 354 | 0.9 | 5.2 | 0.00 | 0.00 | 0.00 | 79 | 1003.6 |
| 20260505023047 | 44 | 335 | 0.0 | 0.0 | 0.00 | 0.00 | 0.00 | 76 | 1003.3 |
| 20260505021543 | 44 | 30 | 2.6 | 6.1 | 0.00 | 0.00 | 0.00 | 74 | 1003.2 |
| 20260505020042 | 45 | 14 | 3.5 | 7.8 | 0.00 | 0.00 | 0.00 | 72 | 1003.3 |
| 20260505014600 | 45 | 350 | 3.5 | 7.0 | 0.00 | 0.00 | 0.00 | 71 | 1003.0 |
| 20260505013042 | 46 | 82 | 6.1 | 10.4 | 0.00 | 0.00 | 0.00 | 69 | 1002.9 |
| 20260505011546 | 48 | 24 | 7.0 | 12.2 | 0.00 | 0.00 | 0.00 | 60 | 1002.9 |
| 20260505010036 | 50 | 345 | 0.9 | 6.1 | 0.00 | 0.00 | 0.00 | 53 | 1002.2 |
| 20260505004535 | 50 | 346 | 1.7 | 7.8 | 0.00 | 0.00 | 0.00 | 55 | 1001.9 |
| 20260505003033 | 51 | 360 | 6.1 | 13.0 | 0.00 | 0.00 | 0.00 | 52 | 1001.4 |
| 20260505001541 | 52 | 349 | 12.2 | 17.4 | 0.00 | 0.00 | 0.00 | 48 | 1001.3 |
| 20260505000033 | 53 | 349 | 13.0 | 20.0 | 0.00 | 0.00 | 0.00 | 45 | 1001.1 |
| 20260504234532 | 54 | 56 | 13.0 | 17.4 | 0.00 | 0.00 | 0.00 | 41 | 1001.1 |
| 20260504233032 | 54 | 33 | 3.5 | 8.7 | 0.00 | 0.00 | 0.00 | 43 | 1000.9 |
| 20260504231531 | 54 | 90 | 7.8 | 20.9 | 0.00 | 0.00 | 0.00 | 42 | 1001.3 |
| 20260504230030 | 56 | 123 | 1.7 | 3.5 | 0.00 | 0.00 | 0.00 | 39 | 1000.4 |
| 20260504224536 | 56 | 359 | 7.8 | 14.8 | 0.00 | 0.00 | 0.00 | 40 | 1000.3 |
| 20260504223029 | 59 | 1 | 3.5 | 7.8 | 0.00 | 0.00 | 0.00 | 33 | 1000.1 |
| 20260504221528 | 59 | 335 | 0.9 | 6.1 | 0.00 | 0.00 | 0.00 | 31 | 1000.0 |
| 20260504220027 | 60 | 51 | 5.2 | 8.7 | 0.00 | 0.00 | 0.00 | 31 | 1000.1 |
| 20260504214528 | 61 | 51 | 3.5 | 13.9 | 0.00 | 0.00 | 0.00 | 28 | 999.9 |
| 20260504213025 | 61 | 46 | 9.6 | 14.8 | 0.00 | 0.00 | 0.00 | 28 | 999.9 |
| 20260504211523 | 62 | 36 | 13.9 | 19.1 | 0.00 | 0.00 | 0.00 | 28 | 1000.0 |
| 20260504210034 | 62 | 46 | 8.7 | 13.0 | 0.00 | 0.00 | 0.00 | 28 | 1000.1 |
| 20260504204530 | 60 | 333 | 7.0 | 13.0 | 0.00 | 0.00 | 0.00 | 29 | 1000.3 |
| 20260504203025 | 60 | 330 | 10.4 | 20.9 | 0.00 | 0.00 | 0.00 | 30 | 1000.4 |
| 20260504201520 | 62 | 337 | 12.2 | 21.7 | 0.00 | 0.00 | 0.00 | 29 | 1000.4 |
| 20260504200018 | 62 | 276 | 7.8 | 16.5 | 0.00 | 0.00 | 0.00 | 23 | 1000.4 |
| 20260504194518 | 62 | 340 | 1.7 | 16.5 | 0.00 | 0.00 | 0.00 | 24 | 1000.6 |
| 20260504193017 | 63 | 161 | 7.0 | 12.2 | 0.00 | 0.00 | 0.00 | 22 | 1000.3 |
| 20260504191515 | 63 | 125 | 4.3 | 12.2 | 0.00 | 0.00 | 0.00 | 22 | 1000.7 |
| 20260504190012 | 62 | 53 | 6.1 | 8.7 | 0.00 | 0.00 | 0.00 | 24 | 1000.7 |
| 20260504184510 | 60 | 63 | 7.8 | 12.2 | 0.00 | 0.00 | 0.00 | 27 | 1001.0 |
| 20260504183009 | 60 | 63 | 6.1 | 11.3 | 0.00 | 0.00 | 0.00 | 31 | 1001.4 |
| 20260504181507 | 61 | 268 | 0.0 | 8.7 | 0.00 | 0.00 | 0.00 | 23 | 1001.6 |
| 20260504180004 | 62 | 330 | 1.7 | 6.1 | 0.00 | 0.00 | 0.00 | 26 | 1001.6 |
| 20260504174506 | 62 | 249 | 6.1 | 11.3 | 0.00 | 0.00 | 0.00 | 24 | 1001.8 |
| 20260504173110 | 64 | 178 | 2.6 | 7.0 | 0.00 | 0.00 | 0.00 | 26 | 1002.2 |
| 20260504171602 | 62 | 214 | 7.0 | 13.9 | 0.00 | 0.00 | 0.00 | 27 | 1002.5 |